sensor_id;sensor_type;location;lat;lon;timestamp;pressure;altitude;pressure_sealevel;temperature;humidity
36284;BME280;56085;48.910;9.478;2024-03-23T00:55:36;97455.28;;;14.64;45.85
36284;BME280;56085;48.910;9.478;2024-03-23T00:58:01;97444.59;;;14.56;46.29
36284;BME280;56085;48.910;9.478;2024-03-23T01:00:27;97450.22;;;14.48;46.55
36284;BME280;56085;48.910;9.478;2024-03-23T01:02:52;97439.16;;;14.38;46.78
36284;BME280;56085;48.910;9.478;2024-03-23T01:05:17;97435.16;;;14.46;46.45
36284;BME280;56085;48.910;9.478;2024-03-23T01:07:43;97427.59;;;14.46;46.41
36284;BME280;56085;48.910;9.478;2024-03-23T01:10:08;97423.97;;;14.53;46.15
36284;BME280;56085;48.910;9.478;2024-03-23T01:12:34;97428.72;;;14.53;46.14
36284;BME280;56085;48.910;9.478;2024-03-23T01:14:59;97417.97;;;14.58;46.28
36284;BME280;56085;48.910;9.478;2024-03-23T01:17:24;97421.44;;;14.73;45.86
36284;BME280;56085;48.910;9.478;2024-03-23T01:19:49;97419.06;;;14.72;45.97
36284;BME280;56085;48.910;9.478;2024-03-23T01:22:15;97415.06;;;14.76;45.72
36284;BME280;56085;48.910;9.478;2024-03-23T01:24:40;97417.84;;;14.76;45.78
36284;BME280;56085;48.910;9.478;2024-03-23T01:27:05;97411.06;;;14.81;45.53
36284;BME280;56085;48.910;9.478;2024-03-23T01:29:31;97408.97;;;14.92;45.13
36284;BME280;56085;48.910;9.478;2024-03-23T01:31:56;97406.03;;;15.07;45.11
36284;BME280;56085;48.910;9.478;2024-03-23T01:34:21;97403.47;;;14.85;45.64
36284;BME280;56085;48.910;9.478;2024-03-23T01:36:47;97391.41;;;14.99;45.37
36284;BME280;56085;48.910;9.478;2024-03-23T01:39:13;97384.16;;;15.05;45.19
36284;BME280;56085;48.910;9.478;2024-03-23T01:41:39;97365.06;;;15.07;45.05
36284;BME280;56085;48.910;9.478;2024-03-23T01:44:07;97380.78;;;14.87;45.59
36284;BME280;56085;48.910;9.478;2024-03-23T01:46:33;97378.38;;;14.89;45.46
36284;BME280;56085;48.910;9.478;2024-03-23T01:48:59;97383.81;;;14.99;45.49
36284;BME280;56085;48.910;9.478;2024-03-23T01:51:25;97372.31;;;14.97;45.21
36284;BME280;56085;48.910;9.478;2024-03-23T01:53:52;97374.50;;;15.17;44.69
36284;BME280;56085;48.910;9.478;2024-03-23T01:56:18;97367.28;;;15.23;44.66
36284;BME280;56085;48.910;9.478;2024-03-23T01:58:44;97364.38;;;15.34;43.90
36284;BME280;56085;48.910;9.478;2024-03-23T02:01:10;97343.78;;;15.59;43.77
36284;BME280;56085;48.910;9.478;2024-03-23T02:03:35;97340.56;;;15.91;43.69
36284;BME280;56085;48.910;9.478;2024-03-23T02:06:01;97337.94;;;15.80;43.67
36284;BME280;56085;48.910;9.478;2024-03-23T02:08:26;97334.25;;;15.56;44.26
36284;BME280;56085;48.910;9.478;2024-03-23T02:10:51;97332.19;;;15.64;44.06
36284;BME280;56085;48.910;9.478;2024-03-23T02:13:18;97319.66;;;16.07;43.14
36284;BME280;56085;48.910;9.478;2024-03-23T02:15:44;97305.59;;;16.14;43.02
36284;BME280;56085;48.910;9.478;2024-03-23T02:18:10;97311.06;;;16.21;43.12
36284;BME280;56085;48.910;9.478;2024-03-23T02:20:36;97306.03;;;16.36;42.73
36284;BME280;56085;48.910;9.478;2024-03-23T02:23:02;97308.88;;;16.56;42.43
36284;BME280;56085;48.910;9.478;2024-03-23T02:25:27;97322.22;;;16.68;42.30
36284;BME280;56085;48.910;9.478;2024-03-23T02:27:52;97306.47;;;17.02;41.77
36284;BME280;56085;48.910;9.478;2024-03-23T02:30:19;97306.78;;;16.84;41.74
36284;BME280;56085;48.910;9.478;2024-03-23T02:32:44;97296.31;;;17.12;41.51
36284;BME280;56085;48.910;9.478;2024-03-23T02:35:09;97307.91;;;17.10;41.41
36284;BME280;56085;48.910;9.478;2024-03-23T02:37:35;97306.03;;;17.03;41.53
36284;BME280;56085;48.910;9.478;2024-03-23T02:40:00;97308.28;;;17.32;41.22
36284;BME280;56085;48.910;9.478;2024-03-23T02:42:25;97296.53;;;17.41;41.03
36284;BME280;56085;48.910;9.478;2024-03-23T02:44:51;97293.91;;;17.50;40.98
36284;BME280;56085;48.910;9.478;2024-03-23T02:47:16;97300.28;;;17.51;40.82
36284;BME280;56085;48.910;9.478;2024-03-23T02:49:41;97282.78;;;17.67;40.60
36284;BME280;56085;48.910;9.478;2024-03-23T02:52:06;97299.31;;;17.41;40.87
36284;BME280;56085;48.910;9.478;2024-03-23T02:54:32;97276.75;;;17.68;40.68
36284;BME280;56085;48.910;9.478;2024-03-23T02:56:57;97281.88;;;17.53;40.58
36284;BME280;56085;48.910;9.478;2024-03-23T02:59:22;97278.66;;;17.55;40.64
36284;BME280;56085;48.910;9.478;2024-03-23T03:01:47;97278.53;;;17.78;40.51
36284;BME280;56085;48.910;9.478;2024-03-23T03:04:13;97276.56;;;17.59;40.62
36284;BME280;56085;48.910;9.478;2024-03-23T03:06:38;97266.16;;;17.59;40.54
36284;BME280;56085;48.910;9.478;2024-03-23T03:09:03;97264.75;;;17.88;40.26
36284;BME280;56085;48.910;9.478;2024-03-23T03:11:29;97269.72;;;17.80;40.28
36284;BME280;56085;48.910;9.478;2024-03-23T03:13:54;97261.41;;;17.76;40.36
36284;BME280;56085;48.910;9.478;2024-03-23T03:16:20;97256.84;;;17.66;40.54
36284;BME280;56085;48.910;9.478;2024-03-23T03:18:45;97266.22;;;17.76;40.52
36284;BME280;56085;48.910;9.478;2024-03-23T03:21:12;97262.38;;;17.86;40.22
36284;BME280;56085;48.910;9.478;2024-03-23T03:23:38;97253.00;;;17.76;40.37
36284;BME280;56085;48.910;9.478;2024-03-23T03:26:06;97249.72;;;17.82;40.25
36284;BME280;56085;48.910;9.478;2024-03-23T03:28:32;97238.66;;;17.58;40.70
36284;BME280;56085;48.910;9.478;2024-03-23T03:31:01;97233.53;;;17.73;40.43
36284;BME280;56085;48.910;9.478;2024-03-23T03:33:27;97245.31;;;17.64;40.56
36284;BME280;56085;48.910;9.478;2024-03-23T03:35:52;97249.13;;;17.90;40.29
36284;BME280;56085;48.910;9.478;2024-03-23T03:38:18;97258.25;;;17.74;40.26
36284;BME280;56085;48.910;9.478;2024-03-23T03:40:43;97248.41;;;17.86;40.29
36284;BME280;56085;48.910;9.478;2024-03-23T03:43:09;97245.34;;;17.44;40.78
36284;BME280;56085;48.910;9.478;2024-03-23T03:45:34;97238.44;;;17.12;41.25
36284;BME280;56085;48.910;9.478;2024-03-23T03:47:59;97241.97;;;16.96;41.70
36284;BME280;56085;48.910;9.478;2024-03-23T03:50:24;97244.94;;;16.85;41.44
36284;BME280;56085;48.910;9.478;2024-03-23T03:52:50;97242.59;;;16.84;41.78
36284;BME280;56085;48.910;9.478;2024-03-23T03:55:16;97234.75;;;16.55;42.10
36284;BME280;56085;48.910;9.478;2024-03-23T03:57:41;97238.09;;;16.46;42.51
36284;BME280;56085;48.910;9.478;2024-03-23T04:00:07;97226.81;;;16.53;42.47
36284;BME280;56085;48.910;9.478;2024-03-23T04:02:36;97221.09;;;16.61;42.17
36284;BME280;56085;48.910;9.478;2024-03-23T04:05:01;97217.50;;;16.40;42.63
36284;BME280;56085;48.910;9.478;2024-03-23T04:07:28;97215.56;;;16.57;42.21
36284;BME280;56085;48.910;9.478;2024-03-23T04:09:53;97195.13;;;16.64;42.16
36284;BME280;56085;48.910;9.478;2024-03-23T04:12:19;97182.91;;;16.57;42.03
36284;BME280;56085;48.910;9.478;2024-03-23T04:14:45;97175.00;;;16.52;42.28
36284;BME280;56085;48.910;9.478;2024-03-23T04:17:10;97181.72;;;16.35;42.44
36284;BME280;56085;48.910;9.478;2024-03-23T04:19:35;97184.94;;;16.33;42.39
36284;BME280;56085;48.910;9.478;2024-03-23T04:22:01;97175.06;;;16.29;42.34
36284;BME280;56085;48.910;9.478;2024-03-23T04:24:26;97163.00;;;16.35;42.18
36284;BME280;56085;48.910;9.478;2024-03-23T04:26:52;97151.91;;;16.32;42.21
36284;BME280;56085;48.910;9.478;2024-03-23T04:29:17;97151.91;;;16.32;42.41
36284;BME280;56085;48.910;9.478;2024-03-23T04:31:42;97152.81;;;16.25;42.44
36284;BME280;56085;48.910;9.478;2024-03-23T04:34:07;97149.69;;;16.43;42.01
36284;BME280;56085;48.910;9.478;2024-03-23T04:36:33;97152.91;;;16.42;41.98
36284;BME280;56085;48.910;9.478;2024-03-23T04:38:59;97159.03;;;16.13;42.71
36284;BME280;56085;48.910;9.478;2024-03-23T04:41:25;97190.75;;;15.71;42.77
36284;BME280;56085;48.910;9.478;2024-03-23T04:43:51;97225.41;;;15.12;44.06
36284;BME280;56085;48.910;9.478;2024-03-23T04:46:16;97256.47;;;14.35;47.61
36284;BME280;56085;48.910;9.478;2024-03-23T04:48:41;97240.41;;;14.53;48.77
36284;BME280;56085;48.910;9.478;2024-03-23T04:51:09;97258.94;;;14.25;50.38
36284;BME280;56085;48.910;9.478;2024-03-23T04:53:35;97252.09;;;14.34;51.17
36284;BME280;56085;48.910;9.478;2024-03-23T04:56:00;97260.41;;;14.37;52.30
36284;BME280;56085;48.910;9.478;2024-03-23T04:58:26;97250.84;;;14.42;53.41
36284;BME280;56085;48.910;9.478;2024-03-23T05:00:55;97260.78;;;14.81;53.92
36284;BME280;56085;48.910;9.478;2024-03-23T05:03:20;97239.38;;;14.78;53.38
36284;BME280;56085;48.910;9.478;2024-03-23T05:05:46;97242.00;;;14.89;53.30
36284;BME280;56085;48.910;9.478;2024-03-23T05:08:11;97237.66;;;14.88;53.67
36284;BME280;56085;48.910;9.478;2024-03-23T05:10:37;97240.94;;;15.10;53.28
36284;BME280;56085;48.910;9.478;2024-03-23T05:13:03;97234.16;;;15.14;53.63
36284;BME280;56085;48.910;9.478;2024-03-23T05:15:28;97243.09;;;15.29;53.18
36284;BME280;56085;48.910;9.478;2024-03-23T05:17:55;97241.78;;;15.07;54.03
36284;BME280;56085;48.910;9.478;2024-03-23T05:20:20;97240.72;;;14.97;54.66
36284;BME280;56085;48.910;9.478;2024-03-23T05:22:45;97235.78;;;15.12;54.63
36284;BME280;56085;48.910;9.478;2024-03-23T05:25:11;97233.75;;;15.12;54.31
36284;BME280;56085;48.910;9.478;2024-03-23T05:27:37;97231.97;;;14.98;55.04
36284;BME280;56085;48.910;9.478;2024-03-23T05:30:02;97236.66;;;14.71;55.63
36284;BME280;56085;48.910;9.478;2024-03-23T05:32:28;97254.81;;;14.82;55.32
36284;BME280;56085;48.910;9.478;2024-03-23T05:34:54;97261.97;;;14.83;55.16
36284;BME280;56085;48.910;9.478;2024-03-23T05:37:22;97253.97;;;14.86;55.58
36284;BME280;56085;48.910;9.478;2024-03-23T05:39:47;97269.00;;;14.54;55.87
36284;BME280;56085;48.910;9.478;2024-03-23T05:42:18;97273.84;;;14.46;56.24
36284;BME280;56085;48.910;9.478;2024-03-23T05:44:46;97270.53;;;14.62;55.71
36284;BME280;56085;48.910;9.478;2024-03-23T05:47:13;97273.19;;;14.73;55.24
36284;BME280;56085;48.910;9.478;2024-03-23T05:49:42;97267.19;;;14.78;55.25
36284;BME280;56085;48.910;9.478;2024-03-23T05:52:08;97268.97;;;14.57;55.02
36284;BME280;56085;48.910;9.478;2024-03-23T05:54:33;97287.69;;;14.49;55.21
36284;BME280;56085;48.910;9.478;2024-03-23T05:56:58;97299.38;;;14.34;55.54
36284;BME280;56085;48.910;9.478;2024-03-23T05:59:24;97295.75;;;14.37;55.62
36284;BME280;56085;48.910;9.478;2024-03-23T06:01:50;97299.81;;;14.28;55.78
36284;BME280;56085;48.910;9.478;2024-03-23T06:04:15;97298.94;;;13.86;56.31
36284;BME280;56085;48.910;9.478;2024-03-23T06:06:40;97308.75;;;14.02;55.02
36284;BME280;56085;48.910;9.478;2024-03-23T06:09:05;97308.00;;;13.98;55.64
36284;BME280;56085;48.910;9.478;2024-03-23T06:11:31;97314.19;;;14.16;55.09
36284;BME280;56085;48.910;9.478;2024-03-23T06:13:56;97312.84;;;13.83;56.48
36284;BME280;56085;48.910;9.478;2024-03-23T06:16:21;97293.03;;;13.81;55.70
36284;BME280;56085;48.910;9.478;2024-03-23T06:18:52;97298.38;;;13.50;55.79
36284;BME280;56085;48.910;9.478;2024-03-23T06:21:18;97320.25;;;13.40;55.81
36284;BME280;56085;48.910;9.478;2024-03-23T06:23:44;97326.94;;;13.50;55.88
36284;BME280;56085;48.910;9.478;2024-03-23T06:26:17;97336.06;;;13.47;55.79
36284;BME280;56085;48.910;9.478;2024-03-23T06:28:42;97338.81;;;13.54;55.79
36284;BME280;56085;48.910;9.478;2024-03-23T06:31:10;97336.13;;;13.36;56.30
36284;BME280;56085;48.910;9.478;2024-03-23T06:33:36;97344.06;;;13.27;56.04
36284;BME280;56085;48.910;9.478;2024-03-23T06:36:01;97329.69;;;13.50;55.45
36284;BME280;56085;48.910;9.478;2024-03-23T06:38:28;97324.97;;;13.51;55.43
36284;BME280;56085;48.910;9.478;2024-03-23T06:40:53;97311.13;;;13.33;55.74
36284;BME280;56085;48.910;9.478;2024-03-23T06:43:18;97331.66;;;13.57;55.54
36284;BME280;56085;48.910;9.478;2024-03-23T06:45:44;97353.91;;;13.46;55.55
36284;BME280;56085;48.910;9.478;2024-03-23T06:48:09;97369.38;;;13.51;55.45
36284;BME280;56085;48.910;9.478;2024-03-23T06:50:34;97377.34;;;13.45;55.45
36284;BME280;56085;48.910;9.478;2024-03-23T06:53:00;97384.97;;;13.05;56.08
36284;BME280;56085;48.910;9.478;2024-03-23T06:55:27;97410.75;;;12.95;56.40
36284;BME280;56085;48.910;9.478;2024-03-23T06:57:53;97397.25;;;13.04;55.77
36284;BME280;56085;48.910;9.478;2024-03-23T07:00:18;97412.72;;;12.83;55.81
36284;BME280;56085;48.910;9.478;2024-03-23T07:02:44;97407.53;;;13.18;55.00
36284;BME280;56085;48.910;9.478;2024-03-23T07:05:11;97414.31;;;12.99;55.63
36284;BME280;56085;48.910;9.478;2024-03-23T07:07:38;97432.53;;;13.10;54.91
36284;BME280;56085;48.910;9.478;2024-03-23T07:10:04;97430.94;;;13.13;55.18
36284;BME280;56085;48.910;9.478;2024-03-23T07:12:30;97434.13;;;13.12;54.82
36284;BME280;56085;48.910;9.478;2024-03-23T07:14:55;97427.75;;;13.22;54.71
36284;BME280;56085;48.910;9.478;2024-03-23T07:17:20;97441.63;;;13.11;54.45
36284;BME280;56085;48.910;9.478;2024-03-23T07:19:46;97453.91;;;13.35;53.79
36284;BME280;56085;48.910;9.478;2024-03-23T07:22:11;97457.06;;;13.44;53.43
36284;BME280;56085;48.910;9.478;2024-03-23T07:24:36;97455.88;;;13.24;53.76
36284;BME280;56085;48.910;9.478;2024-03-23T07:27:04;97464.66;;;13.04;54.19
36284;BME280;56085;48.910;9.478;2024-03-23T07:29:29;97456.28;;;13.15;53.80
36284;BME280;56085;48.910;9.478;2024-03-23T07:31:54;97452.38;;;12.98;54.52
36284;BME280;56085;48.910;9.478;2024-03-23T07:34:20;97473.75;;;12.98;54.05
36284;BME280;56085;48.910;9.478;2024-03-23T07:36:45;97459.50;;;12.92;54.37
36284;BME280;56085;48.910;9.478;2024-03-23T07:39:10;97464.63;;;13.15;54.02
36284;BME280;56085;48.910;9.478;2024-03-23T07:41:36;97459.84;;;13.26;53.99
36284;BME280;56085;48.910;9.478;2024-03-23T07:44:01;97465.44;;;13.05;54.63
36284;BME280;56085;48.910;9.478;2024-03-23T07:46:27;97467.41;;;13.15;53.90
36284;BME280;56085;48.910;9.478;2024-03-23T07:48:52;97468.63;;;13.07;54.06
36284;BME280;56085;48.910;9.478;2024-03-23T07:51:21;97463.84;;;12.93;54.19
36284;BME280;56085;48.910;9.478;2024-03-23T07:53:47;97479.31;;;12.94;53.74
36284;BME280;56085;48.910;9.478;2024-03-23T07:56:14;97497.94;;;13.12;53.18
36284;BME280;56085;48.910;9.478;2024-03-23T07:58:44;97493.97;;;13.02;53.82
36284;BME280;56085;48.910;9.478;2024-03-23T08:01:12;97490.81;;;13.14;53.25
36284;BME280;56085;48.910;9.478;2024-03-23T08:03:39;97497.13;;;13.22;53.14
36284;BME280;56085;48.910;9.478;2024-03-23T08:08:36;97534.41;;;13.06;53.37
36284;BME280;56085;48.910;9.478;2024-03-23T08:11:02;97529.25;;;12.98;53.12
36284;BME280;56085;48.910;9.478;2024-03-23T08:13:28;97532.03;;;12.98;53.07
36284;BME280;56085;48.910;9.478;2024-03-23T08:16:01;97547.00;;;12.50;55.28
36284;BME280;56085;48.910;9.478;2024-03-23T08:18:26;97516.91;;;12.48;55.04
36284;BME280;56085;48.910;9.478;2024-03-23T08:20:59;97549.78;;;12.50;55.36
36284;BME280;56085;48.910;9.478;2024-03-23T08:23:25;97558.88;;;12.43;54.29
36284;BME280;56085;48.910;9.478;2024-03-23T08:25:51;97586.53;;;12.21;55.25
36284;BME280;56085;48.910;9.478;2024-03-23T08:28:17;97597.66;;;12.32;55.55
36284;BME280;56085;48.910;9.478;2024-03-23T08:30:44;97598.94;;;12.53;54.96
36284;BME280;56085;48.910;9.478;2024-03-23T08:33:09;97592.84;;;12.18;56.31
36284;BME280;56085;48.910;9.478;2024-03-23T08:35:34;97609.00;;;12.02;55.85
36284;BME280;56085;48.910;9.478;2024-03-23T08:38:00;97628.06;;;12.14;55.12
36284;BME280;56085;48.910;9.478;2024-03-23T08:40:25;97634.84;;;12.24;54.59
36284;BME280;56085;48.910;9.478;2024-03-23T08:42:50;97648.88;;;12.64;54.00
36284;BME280;56085;48.910;9.478;2024-03-23T08:45:15;97664.78;;;12.85;54.08
36284;BME280;56085;48.910;9.478;2024-03-23T08:47:41;97671.06;;;12.67;53.42
36284;BME280;56085;48.910;9.478;2024-03-23T08:50:06;97688.03;;;12.48;53.26
36284;BME280;56085;48.910;9.478;2024-03-23T08:52:31;97686.03;;;12.48;52.91
36284;BME280;56085;48.910;9.478;2024-03-23T08:54:57;97694.91;;;12.83;52.44
36284;BME280;56085;48.910;9.478;2024-03-23T08:57:23;97693.56;;;12.48;53.00
36284;BME280;56085;48.910;9.478;2024-03-23T08:59:48;97686.53;;;12.65;52.37
36284;BME280;56085;48.910;9.478;2024-03-23T09:02:14;97657.69;;;12.95;51.98
36284;BME280;56085;48.910;9.478;2024-03-23T09:04:39;97662.78;;;12.82;51.61
36284;BME280;56085;48.910;9.478;2024-03-23T09:07:04;97651.75;;;13.03;51.57
36284;BME280;56085;48.910;9.478;2024-03-23T09:09:29;97666.84;;;13.13;50.90
36284;BME280;56085;48.910;9.478;2024-03-23T09:11:55;97689.69;;;12.67;52.08
36284;BME280;56085;48.910;9.478;2024-03-23T09:14:22;97699.34;;;12.17;52.45
36284;BME280;56085;48.910;9.478;2024-03-23T09:16:49;97714.63;;;12.56;51.62
36284;BME280;56085;48.910;9.478;2024-03-23T09:19:16;97725.78;;;12.70;51.53
36284;BME280;56085;48.910;9.478;2024-03-23T09:21:42;97724.91;;;12.59;51.66
36284;BME280;56085;48.910;9.478;2024-03-23T09:24:08;97734.50;;;12.69;51.75
36284;BME280;56085;48.910;9.478;2024-03-23T09:26:33;97745.06;;;12.52;52.04
36284;BME280;56085;48.910;9.478;2024-03-23T09:28:58;97747.56;;;12.75;50.43
36284;BME280;56085;48.910;9.478;2024-03-23T09:31:24;97753.97;;;12.90;49.97
36284;BME280;56085;48.910;9.478;2024-03-23T09:33:49;97768.38;;;13.14;49.69
36284;BME280;56085;48.910;9.478;2024-03-23T09:36:15;97772.34;;;13.20;49.28
36284;BME280;56085;48.910;9.478;2024-03-23T09:38:41;97764.13;;;13.53;48.78
36284;BME280;56085;48.910;9.478;2024-03-23T09:41:07;97766.47;;;13.36;48.66
36284;BME280;56085;48.910;9.478;2024-03-23T09:43:33;97764.66;;;12.18;49.42
36284;BME280;56085;48.910;9.478;2024-03-23T09:45:58;97768.72;;;11.87;50.41
36284;BME280;56085;48.910;9.478;2024-03-23T09:48:24;97773.66;;;11.60;50.38
36284;BME280;56085;48.910;9.478;2024-03-23T09:50:49;97772.50;;;11.27;51.61
36284;BME280;56085;48.910;9.478;2024-03-23T09:53:15;97769.44;;;11.35;51.68
36284;BME280;56085;48.910;9.478;2024-03-23T09:55:40;97770.03;;;11.56;50.95
36284;BME280;56085;48.910;9.478;2024-03-23T09:58:06;97756.28;;;11.63;51.15
36284;BME280;56085;48.910;9.478;2024-03-23T10:00:32;97739.41;;;11.79;51.01
36284;BME280;56085;48.910;9.478;2024-03-23T10:02:59;97742.13;;;12.23;50.57
36284;BME280;56085;48.910;9.478;2024-03-23T10:05:27;97746.16;;;12.33;50.33
36284;BME280;56085;48.910;9.478;2024-03-23T10:07:52;97745.84;;;12.49;49.45
36284;BME280;56085;48.910;9.478;2024-03-23T10:10:18;97753.59;;;12.88;49.61
36284;BME280;56085;48.910;9.478;2024-03-23T10:12:45;97750.66;;;13.58;48.60
36284;BME280;56085;48.910;9.478;2024-03-23T10:15:18;97745.91;;;13.77;48.78
36284;BME280;56085;48.910;9.478;2024-03-23T10:17:43;97730.78;;;13.53;49.81
36284;BME280;56085;48.910;9.478;2024-03-23T10:20:10;97739.13;;;13.56;48.33
36284;BME280;56085;48.910;9.478;2024-03-23T10:22:37;97744.31;;;13.79;47.68
36284;BME280;56085;48.910;9.478;2024-03-23T10:25:10;97726.44;;;13.99;46.83
36284;BME280;56085;48.910;9.478;2024-03-23T10:27:36;97730.00;;;14.24;47.08
36284;BME280;56085;48.910;9.478;2024-03-23T10:30:12;97716.13;;;14.06;46.39
36284;BME280;56085;48.910;9.478;2024-03-23T10:32:38;97709.69;;;14.49;46.79
36284;BME280;56085;48.910;9.478;2024-03-23T10:35:16;97716.84;;;14.43;45.08
36284;BME280;56085;48.910;9.478;2024-03-23T10:37:44;97718.50;;;14.08;46.53
36284;BME280;56085;48.910;9.478;2024-03-23T10:40:10;97723.28;;;14.04;46.40
36284;BME280;56085;48.910;9.478;2024-03-23T10:42:37;97724.06;;;13.83;46.55
36284;BME280;56085;48.910;9.478;2024-03-23T10:45:04;97728.84;;;13.86;46.49
36284;BME280;56085;48.910;9.478;2024-03-23T10:47:30;97730.38;;;13.36;46.77
36284;BME280;56085;48.910;9.478;2024-03-23T10:49:56;97741.00;;;13.27;46.74
36284;BME280;56085;48.910;9.478;2024-03-23T10:52:21;97728.31;;;13.12;47.11
36284;BME280;56085;48.910;9.478;2024-03-23T10:54:47;97729.88;;;13.09;46.56
36284;BME280;56085;48.910;9.478;2024-03-23T10:57:18;97727.50;;;13.11;46.55
36284;BME280;56085;48.910;9.478;2024-03-23T10:59:45;97733.38;;;12.88;46.54
36284;BME280;56085;48.910;9.478;2024-03-23T11:02:20;97737.28;;;12.80;45.80
36284;BME280;56085;48.910;9.478;2024-03-23T11:04:46;97740.44;;;12.71;46.93
36284;BME280;56085;48.910;9.478;2024-03-23T11:09:52;97766.78;;;11.87;46.90
36284;BME280;56085;48.910;9.478;2024-03-23T11:14:48;97790.88;;;10.47;52.86
36284;BME280;56085;48.910;9.478;2024-03-23T11:17:23;97814.78;;;9.90;53.77
36284;BME280;56085;48.910;9.478;2024-03-23T11:19:59;97811.75;;;9.29;55.61
36284;BME280;56085;48.910;9.478;2024-03-23T11:25:02;97830.78;;;9.57;54.39
36284;BME280;56085;48.910;9.478;2024-03-23T11:27:28;97806.75;;;9.81;53.45
36284;BME280;56085;48.910;9.478;2024-03-23T11:29:53;97806.09;;;10.34;52.68
36284;BME280;56085;48.910;9.478;2024-03-23T11:32:18;97791.28;;;10.76;50.67
36284;BME280;56085;48.910;9.478;2024-03-23T11:34:44;97791.19;;;11.33;49.04
36284;BME280;56085;48.910;9.478;2024-03-23T11:37:09;97799.59;;;11.44;49.19
36284;BME280;56085;48.910;9.478;2024-03-23T11:39:34;97799.19;;;11.87;48.60
36284;BME280;56085;48.910;9.478;2024-03-23T11:41:59;97806.59;;;12.69;47.18
36284;BME280;56085;48.910;9.478;2024-03-23T11:44:25;97801.00;;;13.46;45.97
36284;BME280;56085;48.910;9.478;2024-03-23T11:46:51;97805.00;;;13.52;45.95
36284;BME280;56085;48.910;9.478;2024-03-23T11:49:23;97796.31;;;13.86;45.47
36284;BME280;56085;48.910;9.478;2024-03-23T11:51:50;97793.56;;;14.08;44.89
36284;BME280;56085;48.910;9.478;2024-03-23T11:54:16;97788.78;;;13.90;44.53
36284;BME280;56085;48.910;9.478;2024-03-23T11:56:54;97790.78;;;14.01;45.08
36284;BME280;56085;48.910;9.478;2024-03-23T11:59:41;97795.47;;;13.60;45.63
36284;BME280;56085;48.910;9.478;2024-03-23T12:02:13;97792.28;;;13.55;46.04
36284;BME280;56085;48.910;9.478;2024-03-23T12:04:40;97777.91;;;13.31;46.28
36284;BME280;56085;48.910;9.478;2024-03-23T12:09:37;97767.84;;;12.87;46.92
36284;BME280;56085;48.910;9.478;2024-03-23T12:12:18;97765.81;;;12.77;46.98
36284;BME280;56085;48.910;9.478;2024-03-23T12:15:03;97780.03;;;12.71;46.51
36284;BME280;56085;48.910;9.478;2024-03-23T12:17:30;97774.78;;;12.52;47.45
36284;BME280;56085;48.910;9.478;2024-03-23T12:19:55;97782.91;;;12.23;47.97
36284;BME280;56085;48.910;9.478;2024-03-23T12:22:21;97783.06;;;12.45;47.68
36284;BME280;56085;48.910;9.478;2024-03-23T12:24:46;97780.19;;;12.27;47.93
36284;BME280;56085;48.910;9.478;2024-03-23T12:27:11;97776.72;;;11.92;48.12
36284;BME280;56085;48.910;9.478;2024-03-23T12:29:37;97775.91;;;11.92;48.54
36284;BME280;56085;48.910;9.478;2024-03-23T12:32:04;97782.22;;;12.37;47.66
36284;BME280;56085;48.910;9.478;2024-03-23T12:34:29;97776.78;;;12.58;47.40
36284;BME280;56085;48.910;9.478;2024-03-23T12:36:57;97776.84;;;12.66;47.35
36284;BME280;56085;48.910;9.478;2024-03-23T12:39:23;97770.91;;;12.60;46.76
36284;BME280;56085;48.910;9.478;2024-03-23T12:41:49;97773.56;;;13.34;45.57
36284;BME280;56085;48.910;9.478;2024-03-23T12:44:14;97758.16;;;13.58;44.89
36284;BME280;56085;48.910;9.478;2024-03-23T12:46:41;97756.22;;;13.73;44.29
36284;BME280;56085;48.910;9.478;2024-03-23T12:49:06;97759.00;;;13.91;43.68
36284;BME280;56085;48.910;9.478;2024-03-23T12:51:32;97756.63;;;13.86;43.91
36284;BME280;56085;48.910;9.478;2024-03-23T12:53:58;97752.63;;;13.69;44.25
36284;BME280;56085;48.910;9.478;2024-03-23T12:56:23;97761.34;;;13.42;44.18
36284;BME280;56085;48.910;9.478;2024-03-23T12:58:48;97762.03;;;13.17;44.36
36284;BME280;56085;48.910;9.478;2024-03-23T13:01:19;97765.53;;;13.00;43.59
36284;BME280;56085;48.910;9.478;2024-03-23T13:03:46;97763.16;;;13.02;43.39
36284;BME280;56085;48.910;9.478;2024-03-23T13:06:12;97760.13;;;13.39;42.65
36284;BME280;56085;48.910;9.478;2024-03-23T13:08:37;97771.56;;;13.31;42.56
36284;BME280;56085;48.910;9.478;2024-03-23T13:11:02;97753.63;;;12.96;42.32
36284;BME280;56085;48.910;9.478;2024-03-23T13:13:28;97745.50;;;13.64;41.25
36284;BME280;56085;48.910;9.478;2024-03-23T13:15:53;97748.25;;;14.36;40.33
36284;BME280;56085;48.910;9.478;2024-03-23T13:18:18;97735.06;;;17.21;36.06
36284;BME280;56085;48.910;9.478;2024-03-23T13:20:44;97716.19;;;24.48;26.93
36284;BME280;56085;48.910;9.478;2024-03-23T13:23:09;97702.00;;;26.95;22.86
36284;BME280;56085;48.910;9.478;2024-03-23T13:25:34;97688.63;;;28.47;20.88
36284;BME280;56085;48.910;9.478;2024-03-23T13:28:00;97678.75;;;30.11;18.99
36284;BME280;56085;48.910;9.478;2024-03-23T13:30:26;97666.78;;;29.32;18.58
36284;BME280;56085;48.910;9.478;2024-03-23T13:32:51;97687.41;;;21.04;26.40
36284;BME280;56085;48.910;9.478;2024-03-23T13:35:16;97692.94;;;18.77;30.50
36284;BME280;56085;48.910;9.478;2024-03-23T13:37:41;97696.97;;;17.07;33.41
36284;BME280;56085;48.910;9.478;2024-03-23T13:40:07;97696.66;;;16.25;34.71
36284;BME280;56085;48.910;9.478;2024-03-23T13:42:33;97693.97;;;15.69;35.46
36284;BME280;56085;48.910;9.478;2024-03-23T13:44:58;97675.94;;;20.11;28.84
36284;BME280;56085;48.910;9.478;2024-03-23T13:47:23;97672.69;;;18.06;31.38
36284;BME280;56085;48.910;9.478;2024-03-23T13:49:49;97656.47;;;23.09;26.02
36284;BME280;56085;48.910;9.478;2024-03-23T13:52:14;97654.00;;;26.52;22.55
36284;BME280;56085;48.910;9.478;2024-03-23T13:54:39;97636.84;;;30.34;18.74
36284;BME280;56085;48.910;9.478;2024-03-23T13:57:10;97626.19;;;31.18;17.33
36284;BME280;56085;48.910;9.478;2024-03-23T13:59:36;97644.78;;;24.66;21.09
36284;BME280;56085;48.910;9.478;2024-03-23T14:02:01;97641.50;;;20.52;25.45